Time;durP1;ratioP1;P1;durP2;ratioP2;P2;SDS_P1;SDS_P2;PMS_P1;PMS_P2;Temp;Humidity;BMP_temperature;BMP_pressure;BME280_temperature;BME280_humidity;BME280_pressure;Samples;Min_cycle;Max_cycle;Signal;HPM_P1;HPM_P2
2021/12/11 00:01:24;;;;;;;41.53;20.63;;;;;;;1.11;100.00;100193.03;4972158;28;20062;-77
2021/12/11 00:03:58;;;;;;;49.03;20.48;;;;;;;1.07;100.00;100194.13;4979356;28;20086;-77
2021/12/11 00:06:29;;;;;;;55.40;20.42;;;;;;;1.05;100.00;100205.00;4948349;29;20491;-77
2021/12/11 00:08:59;;;;;;;47.75;19.85;;;;;;;1.05;100.00;100201.41;4963824;28;20027;-77
2021/12/11 00:11:34;;;;;;;52.55;21.13;;;;;;;1.05;100.00;100212.19;4964265;28;20038;-77
2021/12/11 00:14:03;;;;;;;43.50;19.27;;;;;;;0.96;100.00;100221.63;4979825;28;20023;-77
2021/12/11 00:16:32;;;;;;;39.75;18.75;;;;;;;0.99;100.00;100226.84;4965369;28;20042;-77
2021/12/11 00:19:05;;;;;;;46.83;20.90;;;;;;;1.00;100.00;100236.69;4964690;28;20171;-77
2021/12/11 00:21:31;;;;;;;54.45;21.02;;;;;;;1.00;100.00;100244.78;4951467;29;20027;-77
2021/12/11 00:24:11;;;;;;;53.45;21.65;;;;;;;0.95;100.00;100251.34;4963370;28;20027;-77
2021/12/11 00:26:38;;;;;;;51.58;22.05;;;;;;;0.97;100.00;100257.53;4951758;29;20039;-77
2021/12/11 00:29:07;;;;;;;47.38;22.50;;;;;;;0.89;100.00;100247.13;4962407;29;20042;-77
2021/12/11 00:31:36;;;;;;;55.30;22.60;;;;;;;0.94;100.00;100265.78;4948764;28;20043;-77
2021/12/11 00:34:03;;;;;;;59.35;23.13;;;;;;;0.97;100.00;100265.59;4965792;28;20085;-78
2021/12/11 00:36:32;;;;;;;53.72;22.38;;;;;;;0.93;100.00;100264.03;4967107;29;20073;-78
2021/12/11 00:39:14;;;;;;;49.05;21.40;;;;;;;0.94;100.00;100272.03;4982692;28;20035;-77
2021/12/11 00:41:44;;;;;;;51.50;22.65;;;;;;;0.92;100.00;100282.03;4951793;29;20054;-77
2021/12/11 00:44:09;;;;;;;51.33;23.15;;;;;;;0.88;100.00;100294.75;4968789;29;20050;-77
2021/12/11 00:46:35;;;;;;;66.53;23.38;;;;;;;0.82;100.00;100291.47;4973354;28;20038;-77
2021/12/11 00:49:12;;;;;;;61.85;24.55;;;;;;;0.87;100.00;100305.59;4963429;28;20027;-77
2021/12/11 00:51:37;;;;;;;63.67;25.30;;;;;;;0.85;100.00;100311.09;4961909;28;20434;-77
2021/12/11 00:54:03;;;;;;;71.28;26.40;;;;;;;0.88;100.00;100308.22;4953327;28;20046;-77
2021/12/11 00:56:33;;;;;;;65.93;26.73;;;;;;;0.94;100.00;100309.75;4974900;28;20039;-78
2021/12/11 00:59:03;;;;;;;75.60;27.60;;;;;;;0.99;100.00;100321.19;4963384;28;20055;-78
2021/12/11 01:01:33;;;;;;;70.30;27.02;;;;;;;0.98;100.00;100323.97;4963495;29;20039;-78
2021/12/11 01:04:10;;;;;;;64.72;26.35;;;;;;;0.97;100.00;100330.28;4965838;28;20042;-77
2021/12/11 01:06:40;;;;;;;64.53;25.77;;;;;;;0.90;100.00;100332.41;4979737;28;20034;-78
2021/12/11 01:09:13;;;;;;;54.80;25.23;;;;;;;0.88;100.00;100342.38;4959847;28;20023;-77
2021/12/11 01:11:43;;;;;;;;;;;;;;;0.91;100.00;100350.34;4965442;28;20040;-77
2021/12/11 01:14:34;;;;;;;59.85;25.48;;;;;;;0.98;100.00;100365.25;4949611;28;19929;-77
2021/12/11 01:17:06;;;;;;;64.97;26.92;;;;;;;0.97;100.00;100350.06;4957051;29;20038;-77
2021/12/11 01:19:37;;;;;;;69.45;28.42;;;;;;;1.05;100.00;100369.44;4938356;28;20034;-77
2021/12/11 01:22:36;;;;;;;80.22;30.25;;;;;;;1.07;100.00;100369.34;4971330;28;20098;-77
2021/12/11 01:25:08;;;;;;;93.10;31.13;;;;;;;1.07;100.00;100372.91;4946011;29;20047;-77
2021/12/11 01:27:34;;;;;;;82.97;31.30;;;;;;;1.09;100.00;100392.59;4940935;29;21673;-77
2021/12/11 01:30:01;;;;;;;76.95;29.70;;;;;;;1.09;100.00;100386.31;4958079;29;20042;-77
2021/12/11 01:32:29;;;;;;;74.63;30.30;;;;;;;1.11;100.00;100395.22;4974926;28;20043;-77
2021/12/11 01:34:58;;;;;;;86.78;31.70;;;;;;;1.04;100.00;100401.84;4959769;28;20151;-77
2021/12/11 01:37:24;;;;;;;87.57;30.88;;;;;;;1.05;100.00;100400.88;4973425;28;20476;-78
2021/12/11 01:39:51;;;;;;;79.28;29.23;;;;;;;1.01;100.00;100404.69;4961441;28;20043;-78
2021/12/11 01:42:25;;;;;;;85.35;30.58;;;;;;;0.99;100.00;100406.59;4961310;29;20090;-77
2021/12/11 01:44:52;;;;;;;78.82;30.25;;;;;;;1.01;100.00;100415.47;4964665;28;20035;-78
2021/12/11 01:47:25;;;;;;;79.50;30.35;;;;;;;0.86;100.00;100419.75;4961298;29;20039;-77
2021/12/11 01:49:55;;;;;;;78.88;28.35;;;;;;;0.88;100.00;100426.81;4974955;28;20020;-77
2021/12/11 01:52:36;;;;;;;81.63;31.42;;;;;;;0.88;100.00;100434.88;4942560;29;20123;-77
2021/12/11 01:55:10;;;;;;;82.60;30.83;;;;;;;0.93;100.00;100444.59;4957069;29;20172;-78
2021/12/11 01:57:36;;;;;;;81.60;31.38;;;;;;;0.87;100.00;100452.03;4963820;28;20463;-77
2021/12/11 02:00:20;;;;;;;79.93;29.63;;;;;;;0.90;100.00;100453.69;4958304;28;20471;-77
2021/12/11 02:02:51;;;;;;;71.38;28.63;;;;;;;0.84;100.00;100454.84;4954636;29;20499;-77
2021/12/11 02:05:23;;;;;;;69.68;29.30;;;;;;;0.77;100.00;100464.16;4958768;29;20040;-77
2021/12/11 02:07:52;;;;;;;70.82;30.42;;;;;;;0.73;100.00;100471.47;4958230;28;20388;-77
2021/12/11 02:10:38;;;;;;;71.60;30.20;;;;;;;0.75;100.00;100474.13;4956350;28;20645;-77
2021/12/11 02:13:08;;;;;;;83.82;29.38;;;;;;;0.79;100.00;100481.13;4947996;29;20039;-77
2021/12/11 02:15:39;;;;;;;106.50;30.25;;;;;;;0.78;100.00;100483.91;4945365;29;20031;-77
2021/12/11 02:18:18;;;;;;;124.28;34.30;;;;;;;0.83;100.00;100488.13;4960182;28;20054;-77
2021/12/11 02:21:01;;;;;;;224.85;37.05;;;;;;;0.84;100.00;100495.28;4958570;29;20043;-77
2021/12/11 02:23:28;;;;;;;280.37;37.50;;;;;;;0.85;100.00;100502.41;4945187;29;20042;-78
2021/12/11 02:26:08;;;;;;;207.73;37.65;;;;;;;0.88;100.00;100512.16;4971100;28;20282;-78
2021/12/11 02:28:41;;;;;;;202.18;39.33;;;;;;;0.91;100.00;100512.03;4949344;29;20023;-78
2021/12/11 02:31:28;;;;;;;254.48;37.28;;;;;;;0.97;100.00;100525.25;4974173;28;20086;-78
2021/12/11 02:34:01;;;;;;;264.17;37.38;;;;;;;0.88;100.00;100525.66;4961460;29;20038;-78
2021/12/11 02:36:33;;;;;;;271.17;38.70;;;;;;;0.79;100.00;100534.13;4977764;28;20039;-78
2021/12/11 02:39:12;;;;;;;182.43;36.47;;;;;;;0.78;100.00;100537.78;4961502;28;20067;-78
2021/12/11 02:41:52;;;;;;;196.23;37.28;;;;;;;0.71;100.00;100535.34;4980613;28;20028;-78
2021/12/11 02:44:23;;;;;;;189.05;37.05;;;;;;;0.72;100.00;100536.22;4960426;28;20039;-78
2021/12/11 02:46:56;;;;;;;178.02;36.38;;;;;;;0.72;100.00;100539.81;4945007;29;20031;-79
2021/12/11 02:49:42;;;;;;;140.18;33.35;;;;;;;0.72;100.00;100552.38;4963770;29;20035;-78
2021/12/11 02:52:31;;;;;;;96.43;32.22;;;;;;;0.79;100.00;100550.28;4962700;29;20035;-78
2021/12/11 02:55:04;;;;;;;105.63;32.50;;;;;;;0.65;100.00;100548.22;4948538;29;20051;-79
2021/12/11 02:57:37;;;;;;;107.45;30.60;;;;;;;0.63;100.00;100553.66;4979344;28;20061;-79
2021/12/11 03:00:32;;;;;;;114.57;33.00;;;;;;;0.67;100.00;100560.69;4978439;28;20037;-78
2021/12/11 03:03:04;;;;;;;118.93;32.00;;;;;;;0.68;100.00;100562.41;4956261;29;20110;-79
2021/12/11 03:05:41;;;;;;;117.18;32.88;;;;;;;0.71;100.00;100561.44;4963719;28;20471;-78
2021/12/11 03:08:11;;;;;;;115.50;32.70;;;;;;;0.70;100.00;100575.81;4962406;28;20027;-79
2021/12/11 03:10:40;;;;;;;126.13;34.00;;;;;;;0.79;100.00;100579.94;4963740;28;20035;-78
2021/12/11 03:13:05;;;;;;;176.88;32.53;;;;;;;0.66;100.00;100579.59;4962929;29;20039;-79
2021/12/11 03:15:33;;;;;;;150.57;32.35;;;;;;;0.62;100.00;100577.97;4962667;29;20027;-78
2021/12/11 03:17:59;;;;;;;143.73;33.38;;;;;;;0.52;100.00;100581.03;4963875;28;20110;-78
2021/12/11 03:20:25;;;;;;;139.73;29.73;;;;;;;0.53;100.00;100581.94;4963708;28;20042;-79
2021/12/11 03:22:51;;;;;;;163.77;31.67;;;;;;;0.50;100.00;100582.94;4980250;28;20036;-79
2021/12/11 03:25:24;;;;;;;156.23;32.70;;;;;;;0.47;100.00;100591.13;4945739;29;20038;-79
2021/12/11 03:27:49;;;;;;;180.98;31.58;;;;;;;0.43;100.00;100592.22;4945949;29;20042;-78
2021/12/11 03:30:23;;;;;;;210.65;34.60;;;;;;;0.41;100.00;100594.09;4961124;28;20004;-78
2021/12/11 03:32:51;;;;;;;151.02;30.75;;;;;;;0.49;100.00;100612.63;4953202;28;20110;-78
2021/12/11 03:35:18;;;;;;;228.63;31.45;;;;;;;0.40;100.00;100602.25;4960636;29;20127;-79
2021/12/11 03:37:44;;;;;;;204.05;31.30;;;;;;;0.34;100.00;100608.75;4977452;28;20086;-79
2021/12/11 03:40:11;;;;;;;289.40;33.85;;;;;;;0.29;100.00;100621.53;4944252;29;20037;-78
2021/12/11 03:42:40;;;;;;;265.30;33.13;;;;;;;0.27;100.00;100623.41;4967462;28;20097;-78
2021/12/11 03:45:10;;;;;;;268.33;34.13;;;;;;;0.32;100.00;100627.66;4955346;28;20439;-78
2021/12/11 03:47:40;;;;;;;246.65;35.05;;;;;;;0.40;100.00;100630.03;4959646;29;20039;-78
2021/12/11 03:50:11;;;;;;;289.00;34.67;;;;;;;0.37;100.00;100624.78;4975405;28;20039;-78
2021/12/11 03:52:36;;;;;;;226.15;31.83;;;;;;;0.34;100.00;100636.56;4958682;28;20035;-78
2021/12/11 03:55:03;;;;;;;254.80;35.88;;;;;;;0.34;100.00;100641.06;4963291;28;20054;-78
2021/12/11 03:57:30;;;;;;;293.10;36.40;;;;;;;0.34;100.00;100638.38;4959349;29;20525;-78
2021/12/11 03:59:57;;;;;;;235.50;33.55;;;;;;;0.30;100.00;100643.00;4942352;29;20051;-78
2021/12/11 04:02:30;;;;;;;202.70;34.10;;;;;;;0.35;100.00;100643.69;4959545;28;20059;-78
2021/12/11 04:05:00;;;;;;;305.75;33.38;;;;;;;0.28;100.00;100644.00;4964158;28;20053;-78
2021/12/11 04:07:31;;;;;;;258.20;37.13;;;;;;;0.34;100.00;100638.38;4963611;28;20031;-78
2021/12/11 04:09:57;;;;;;;244.95;34.65;;;;;;;0.35;100.00;100648.22;4973731;28;20098;-78
2021/12/11 04:12:24;;;;;;;255.38;33.30;;;;;;;0.33;100.00;100650.97;4953516;28;20042;-78
2021/12/11 04:14:52;;;;;;;268.98;34.80;;;;;;;0.38;100.00;100655.28;4943170;29;20467;-78
2021/12/11 04:17:22;;;;;;;291.17;34.25;;;;;;;0.35;100.00;100659.84;4958489;28;20627;-78
2021/12/11 04:19:51;;;;;;;296.27;33.70;;;;;;;0.38;100.00;100661.56;4950647;29;20035;-78
2021/12/11 04:22:17;;;;;;;388.75;36.97;;;;;;;0.36;100.00;100658.03;4958449;28;20027;-78
2021/12/11 04:24:44;;;;;;;293.17;36.15;;;;;;;0.42;100.00;100663.16;4971508;28;20044;-77
2021/12/11 04:27:12;;;;;;;298.15;36.92;;;;;;;0.46;100.00;100680.97;4957518;28;20042;-78
2021/12/11 04:29:39;;;;;;;301.40;35.38;;;;;;;0.45;100.00;100672.97;4971901;28;20082;-78
2021/12/11 04:32:06;;;;;;;304.58;37.45;;;;;;;0.53;100.00;100674.38;4974329;28;20401;-78
2021/12/11 04:34:33;;;;;;;382.02;41.35;;;;;;;0.58;100.00;100686.81;4978986;28;20043;-78
2021/12/11 04:37:15;;;;;;;320.67;36.17;;;;;;;0.58;100.00;100679.59;4962857;29;20047;-78
2021/12/11 04:39:44;;;;;;;312.27;39.67;;;;;;;0.62;100.00;100677.66;4972156;28;20051;-78
2021/12/11 04:44:50;;;;;;;299.17;40.90;;;;;;;0.75;100.00;100695.06;4963273;28;20134;-78
2021/12/11 04:47:31;;;;;;;243.75;38.97;;;;;;;0.78;100.00;100689.56;4975182;28;20063;-78
2021/12/11 04:50:03;;;;;;;284.00;39.83;;;;;;;0.85;100.00;100696.47;4943339;29;20028;-78
2021/12/11 04:52:34;;;;;;;290.92;40.47;;;;;;;0.83;100.00;100686.66;4946878;29;20119;-77
2021/12/11 04:55:30;;;;;;;275.95;40.03;;;;;;;0.95;100.00;100694.22;4979066;28;20035;-78
2021/12/11 05:10:59;;;;;;;311.85;43.67;;;;;;;1.20;100.00;100717.47;4961036;28;20027;-78
2021/12/11 05:13:28;;;;;;;300.38;41.22;;;;;;;1.19;100.00;100715.72;4951554;29;20062;-78
2021/12/11 05:15:57;;;;;;;321.13;43.00;;;;;;;1.26;100.00;100731.59;4944430;29;20047;-77
2021/12/11 05:18:26;;;;;;;300.83;43.47;;;;;;;1.27;100.00;100725.22;4961127;29;20126;-78
2021/12/11 05:20:57;;;;;;;297.23;42.95;;;;;;;1.32;100.00;100741.22;4966230;28;20040;-77
2021/12/11 05:23:24;;;;;;;268.88;41.55;;;;;;;1.35;100.00;100751.88;4960478;28;20551;-78
2021/12/11 05:25:49;;;;;;;308.10;44.65;;;;;;;1.35;100.00;100743.78;4976383;28;20200;-78
2021/12/11 05:28:15;;;;;;;293.45;43.70;;;;;;;1.40;100.00;100754.38;4946339;29;20074;-78
2021/12/11 05:30:45;;;;;;;305.67;45.80;;;;;;;1.49;100.00;100753.09;4950572;29;20502;-77
2021/12/11 05:33:11;;;;;;;359.75;47.72;;;;;;;1.40;100.00;100759.78;4963244;29;20110;-77
2021/12/11 05:35:39;;;;;;;291.25;45.72;;;;;;;1.42;100.00;100755.19;4978442;28;20054;-77
2021/12/11 05:38:07;;;;;;;303.52;44.25;;;;;;;1.50;100.00;100757.56;4977650;28;20066;-78
2021/12/11 05:40:35;;;;;;;316.30;44.38;;;;;;;1.47;100.00;100769.34;4964039;28;20035;-77
2021/12/11 05:43:03;;;;;;;364.20;44.80;;;;;;;1.48;100.00;100765.72;4953309;28;20040;-78
2021/12/11 05:45:29;;;;;;;277.23;41.40;;;;;;;1.60;100.00;100772.41;4962239;29;20121;-78
2021/12/11 05:47:55;;;;;;;340.83;44.35;;;;;;;1.54;100.00;100773.56;4964175;29;20043;-78
2021/12/11 05:50:26;;;;;;;353.42;45.33;;;;;;;1.52;100.00;100772.72;4962594;28;20041;-80
2021/12/11 05:52:52;;;;;;;320.75;42.58;;;;;;;1.53;100.00;100782.59;4962333;28;20035;-78
2021/12/11 05:55:19;;;;;;;357.92;43.55;;;;;;;1.58;100.00;100794.06;4963151;28;20034;-79
2021/12/11 05:57:53;;;;;;;447.80;48.95;;;;;;;1.55;100.00;100787.91;4975392;28;20052;-81
2021/12/11 06:00:22;;;;;;;298.85;41.47;;;;;;;1.55;100.00;100796.00;4978114;28;20030;-79
2021/12/11 06:02:49;;;;;;;342.90;45.90;;;;;;;1.55;100.00;100794.19;4940781;28;20156;-80
2021/12/11 06:05:14;;;;;;;421.13;47.25;;;;;;;1.63;100.00;100808.22;4961337;28;20127;-80
2021/12/11 06:07:43;;;;;;;322.80;44.70;;;;;;;1.64;100.00;100799.19;4973954;28;20032;-79
2021/12/11 06:10:13;;;;;;;321.77;44.05;;;;;;;1.65;100.00;100794.66;4963613;28;20042;-79
2021/12/11 06:12:39;;;;;;;339.55;44.42;;;;;;;1.71;100.00;100797.09;4964620;28;20039;-78
2021/12/11 06:15:06;;;;;;;362.65;44.60;;;;;;;1.58;100.00;100780.56;4979514;28;20542;-79
2021/12/11 06:17:33;;;;;;;391.65;44.83;;;;;;;1.76;100.00;100800.47;4979687;28;20023;-79
2021/12/11 06:20:00;;;;;;;389.15;46.22;;;;;;;1.78;100.00;100801.28;4965044;28;20058;-79
2021/12/11 06:22:29;;;;;;;376.13;42.25;;;;;;;1.83;100.00;100810.06;4948258;29;20083;-78
2021/12/11 06:24:58;;;;;;;344.05;44.60;;;;;;;1.87;100.00;100818.91;4966282;28;20036;-79
2021/12/11 06:27:26;;;;;;;402.75;46.42;;;;;;;1.91;100.00;100814.25;4951461;29;20088;-79
2021/12/11 06:29:53;;;;;;;475.42;51.60;;;;;;;1.94;100.00;100814.13;4976446;28;20076;-79
2021/12/11 06:32:21;;;;;;;367.50;44.03;;;;;;;1.94;100.00;100820.41;4963187;29;20035;-78
2021/12/11 06:34:47;;;;;;;431.80;47.53;;;;;;;1.96;100.00;100833.84;4981211;28;20078;-78
2021/12/11 06:37:16;;;;;;;391.73;45.17;;;;;;;2.02;100.00;100837.13;4964567;29;20047;-78
2021/12/11 06:39:42;;;;;;;380.15;44.60;;;;;;;2.00;100.00;100839.03;4963855;29;20031;-79
2021/12/11 06:42:09;;;;;;;372.65;44.08;;;;;;;2.07;100.00;100844.19;4967804;28;20152;-78
2021/12/11 06:44:37;;;;;;;375.63;45.08;;;;;;;2.12;100.00;100840.31;4964365;28;20035;-79
2021/12/11 06:47:09;;;;;;;337.45;43.83;;;;;;;2.16;100.00;100843.75;4977890;28;20375;-79
2021/12/11 06:49:37;;;;;;;303.95;42.75;;;;;;;2.18;100.00;100849.94;4961122;28;20035;-79
2021/12/11 06:52:08;;;;;;;314.45;43.67;;;;;;;2.20;100.00;100859.75;4961060;29;20031;-80
2021/12/11 06:54:34;;;;;;;328.67;44.05;;;;;;;2.20;100.00;100857.06;4953482;28;20062;-80
2021/12/11 06:57:00;;;;;;;286.67;42.67;;;;;;;2.23;100.00;100858.75;4950305;29;20039;-78
2021/12/11 06:59:26;;;;;;;332.25;45.33;;;;;;;2.20;100.00;100848.94;4953286;29;20122;-78
2021/12/11 07:01:52;;;;;;;296.63;40.83;;;;;;;2.25;100.00;100870.34;4961010;28;20075;-79
2021/12/11 07:04:21;;;;;;;314.55;43.03;;;;;;;2.28;100.00;100870.22;4950851;29;20032;-79
2021/12/11 07:06:53;;;;;;;309.40;40.95;;;;;;;2.29;100.00;100880.06;4939300;29;20031;-79
2021/12/11 07:09:20;;;;;;;;;;;;;;;2.33;100.00;100879.00;4956030;29;20039;-79
2021/12/11 07:11:48;;;;;;;312.55;40.55;;;;;;;2.36;100.00;100884.28;4962204;28;20001;-80
2021/12/11 07:14:20;;;;;;;270.67;41.15;;;;;;;2.48;100.00;100888.25;4952416;28;20034;-79
2021/12/11 07:16:46;;;;;;;300.95;42.13;;;;;;;2.47;100.00;100885.59;4957844;29;20058;-79
2021/12/11 07:19:12;;;;;;;291.90;43.25;;;;;;;2.50;100.00;100890.88;4963506;29;20402;-78
2021/12/11 07:21:39;;;;;;;299.15;43.67;;;;;;;2.48;100.00;100901.75;4963314;29;20027;-79
2021/12/11 07:24:07;;;;;;;325.55;45.40;;;;;;;2.50;100.00;100891.75;4962142;28;20062;-79
2021/12/11 07:26:35;;;;;;;291.77;45.75;;;;;;;2.55;100.00;100895.09;4972978;28;20106;-79
2021/12/11 07:29:05;;;;;;;296.60;45.67;;;;;;;2.61;100.00;100904.78;4971450;28;20063;-80
2021/12/11 07:31:33;;;;;;;327.52;48.95;;;;;;;2.63;100.00;100892.06;4962954;28;20497;-78
2021/12/11 07:33:59;;;;;;;304.45;48.13;;;;;;;2.67;100.00;100907.22;4960800;29;20471;-79
2021/12/11 07:36:26;;;;;;;292.27;43.60;;;;;;;2.64;100.00;100901.94;4961905;28;20495;-79
2021/12/11 07:38:51;;;;;;;294.52;44.80;;;;;;;2.69;100.00;100904.41;4962563;28;20035;-79
2021/12/11 07:41:18;;;;;;;333.15;47.78;;;;;;;2.74;100.00;100916.78;4960905;28;20054;-79
2021/12/11 07:43:46;;;;;;;267.13;46.95;;;;;;;2.76;100.00;100917.59;4961450;28;20043;-79
2021/12/11 07:46:16;;;;;;;280.20;46.10;;;;;;;2.80;100.00;100917.44;4962904;28;20035;-78
2021/12/11 07:48:43;;;;;;;265.25;42.45;;;;;;;2.77;100.00;100910.34;4960716;28;20060;-80
2021/12/11 07:51:10;;;;;;;257.58;43.38;;;;;;;2.93;100.00;100916.81;4975338;28;20031;-81
2021/12/11 07:53:36;;;;;;;282.95;47.22;;;;;;;2.91;100.00;100910.59;4962551;28;20058;-82
2021/12/11 07:56:02;;;;;;;284.10;47.30;;;;;;;2.87;100.00;100917.09;4968791;28;20487;-81
2021/12/11 07:58:33;;;;;;;257.40;44.50;;;;;;;2.93;100.00;100922.22;4975560;28;20039;-81
2021/12/11 08:01:00;;;;;;;252.52;44.22;;;;;;;2.96;100.00;100933.84;4973772;28;20039;-80
2021/12/11 08:03:25;;;;;;;269.73;47.72;;;;;;;2.94;100.00;100933.94;4984197;28;20550;-81
2021/12/11 08:05:53;;;;;;;280.30;44.63;;;;;;;2.94;100.00;100940.19;4975917;28;20039;-80
2021/12/11 08:08:20;;;;;;;273.20;47.75;;;;;;;2.99;100.00;100940.00;4975984;28;20039;-81
2021/12/11 08:10:52;;;;;;;247.07;44.95;;;;;;;3.05;100.00;100944.22;4980656;28;20050;-81
2021/12/11 08:13:17;;;;;;;198.82;41.47;;;;;;;3.09;100.00;100944.03;4963544;29;20034;-79
2021/12/11 08:15:44;;;;;;;259.10;46.40;;;;;;;3.10;100.00;100950.34;4964514;28;20039;-83
2021/12/11 08:18:11;;;;;;;211.10;42.15;;;;;;;3.18;100.00;100947.25;4965374;29;20035;-80
2021/12/11 08:20:39;;;;;;;182.07;40.58;;;;;;;3.28;100.00;100954.88;4964441;29;20440;-81
2021/12/11 08:23:06;;;;;;;179.73;41.00;;;;;;;3.27;100.00;100960.34;4966389;28;20035;-80
2021/12/11 08:25:33;;;;;;;204.70;42.90;;;;;;;3.24;100.00;100966.78;4965337;29;20031;-80
2021/12/11 08:27:59;;;;;;;180.85;41.42;;;;;;;3.31;100.00;100960.13;4965669;29;20041;-81
2021/12/11 08:30:28;;;;;;;185.55;41.58;;;;;;;3.39;100.00;100970.56;4968204;28;20027;-80
2021/12/11 08:32:54;;;;;;;168.98;40.75;;;;;;;3.42;100.00;100981.25;4968573;28;20059;-81
2021/12/11 08:35:20;;;;;;;157.52;40.15;;;;;;;3.46;100.00;100980.19;4966762;29;20050;-80
2021/12/11 08:37:48;;;;;;;159.90;40.60;;;;;;;3.43;100.00;100977.63;4981776;28;20061;-80
2021/12/11 08:40:20;;;;;;;171.35;39.05;;;;;;;3.36;100.00;100976.16;4967695;28;20031;-80
2021/12/11 08:42:48;;;;;;;148.30;39.37;;;;;;;3.37;100.00;100980.59;4967268;29;20099;-80
2021/12/11 08:45:22;;;;;;;145.75;37.70;;;;;;;3.39;100.00;100988.66;4967164;28;20039;-80
2021/12/11 08:47:52;;;;;;;132.30;37.13;;;;;;;3.47;100.00;100986.47;4933715;29;20126;-80
2021/12/11 08:50:23;;;;;;;126.22;34.70;;;;;;;3.43;100.00;100988.44;4966652;28;20054;-81
2021/12/11 08:52:51;;;;;;;130.75;35.58;;;;;;;3.44;100.00;100987.50;4950111;29;20054;-80
2021/12/11 08:55:23;;;;;;;130.55;33.55;;;;;;;3.48;100.00;100991.81;4965765;28;20042;-80
2021/12/11 08:57:50;;;;;;;130.85;35.50;;;;;;;3.60;100.00;101001.16;4965399;28;20051;-80
2021/12/11 09:00:27;;;;;;;123.07;33.55;;;;;;;3.70;100.00;101014.28;4951140;29;20039;-80
2021/12/11 09:03:06;;;;;;;102.63;30.65;;;;;;;3.80;100.00;101010.16;4966885;29;20053;-80
2021/12/11 09:05:45;;;;;;;116.20;34.20;;;;;;;3.92;100.00;101014.09;4950424;29;20036;-81
2021/12/11 09:08:23;;;;;;;109.28;30.95;;;;;;;3.82;100.00;101022.69;4969032;28;20481;-80
2021/12/11 09:10:55;;;;;;;104.68;31.13;;;;;;;3.79;100.00;101030.09;4966353;28;20442;-80
2021/12/11 09:13:40;;;;;;;103.07;29.75;;;;;;;3.83;100.00;101037.97;4966625;29;20035;-80
2021/12/11 09:16:16;;;;;;;115.43;30.48;;;;;;;3.79;100.00;101044.50;4965412;29;20112;-80
2021/12/11 09:18:56;;;;;;;105.85;28.90;;;;;;;3.90;100.00;101043.97;4966509;28;20035;-79
2021/12/11 09:21:39;;;;;;;83.05;25.65;;;;;;;3.97;100.00;101061.69;4965754;28;20031;-80
2021/12/11 09:24:11;;;;;;;72.32;23.75;;;;;;;4.02;100.00;101056.94;4974271;28;20398;-81
2021/12/11 09:27:03;;;;;;;76.88;22.75;;;;;;;4.08;100.00;101063.00;4959570;29;20059;-81
2021/12/11 09:29:40;;;;;;;70.00;22.00;;;;;;;4.12;100.00;101054.66;4953025;29;20043;-80
2021/12/11 09:32:18;;;;;;;77.82;19.83;;;;;;;4.13;100.00;101072.69;4968281;28;20042;-80
2021/12/11 09:34:54;;;;;;;67.22;18.23;;;;;;;4.23;100.00;101067.66;4953854;29;20042;-80
2021/12/11 09:37:20;;;;;;;47.50;16.02;;;;;;;4.30;100.00;101081.81;4965209;28;20051;-80
2021/12/11 09:39:55;;;;;;;52.05;14.30;;;;;;;4.35;100.00;101080.63;4969522;28;20348;-79
2021/12/11 09:42:20;;;;;;;48.03;14.18;;;;;;;4.40;100.00;101088.53;4979298;28;20032;-79
2021/12/11 09:45:00;;;;;;;44.35;12.60;;;;;;;4.51;100.00;101091.59;4944437;29;20039;-79
2021/12/11 09:47:31;;;;;;;39.30;12.27;;;;;;;4.49;100.00;101089.88;4979661;28;20036;-80
2021/12/11 09:50:03;;;;;;;37.05;11.27;;;;;;;4.53;100.00;101096.94;4951061;29;20027;-80
2021/12/11 09:52:32;;;;;;;38.25;11.20;;;;;;;4.59;100.00;101102.91;4988574;28;20057;-79
2021/12/11 09:55:00;;;;;;;44.03;11.95;;;;;;;4.63;100.00;101108.19;4988370;28;20039;-80
2021/12/11 09:57:29;;;;;;;45.15;11.77;;;;;;;4.69;100.00;101116.00;4979191;28;20066;-80
2021/12/11 09:59:58;;;;;;;35.28;11.35;;;;;;;4.71;100.00;101119.53;4996386;28;20031;-80
2021/12/11 10:02:30;;;;;;;35.75;11.07;;;;;;;4.73;100.00;101115.75;4987730;28;20528;-80
2021/12/11 10:05:31;;;;;;;35.40;11.55;;;;;;;4.75;100.00;101126.53;4966241;29;20043;-80
2021/12/11 10:09:06;;;;;;;29.67;10.40;;;;;;;4.71;100.00;101133.97;4967989;28;20039;-79
2021/12/11 10:10:52;;;;;;;33.55;11.93;;;;;;;4.77;100.00;101140.91;4965631;29;20039;-79
2021/12/11 10:13:17;;;;;;;28.33;11.27;;;;;;;4.76;100.00;101136.44;4967714;28;20039;-79
2021/12/11 10:15:43;;;;;;;31.05;10.98;;;;;;;4.81;100.00;101142.50;4965147;28;20042;-79
2021/12/11 10:18:20;;;;;;;35.38;12.88;;;;;;;4.82;100.00;101135.25;4966611;28;20035;-79
2021/12/11 10:20:59;;;;;;;35.50;12.50;;;;;;;4.82;100.00;101140.66;4966478;28;20471;-79
2021/12/11 10:23:29;;;;;;;33.20;15.07;;;;;;;4.94;100.00;101149.06;4965283;28;20043;-78
2021/12/11 10:25:58;;;;;;;36.83;15.63;;;;;;;4.97;100.00;101156.19;4978645;28;20063;-78
2021/12/11 10:28:27;;;;;;;44.97;16.48;;;;;;;4.86;100.00;101156.72;4964715;28;20077;-78
2021/12/11 10:31:05;;;;;;;42.47;15.98;;;;;;;4.86;100.00;101166.72;4965653;28;20035;-79
2021/12/11 10:33:32;;;;;;;42.22;18.70;;;;;;;4.85;100.00;101168.50;4967064;29;20038;-79
2021/12/11 10:36:01;;;;;;;54.75;20.38;;;;;;;4.92;100.00;101174.50;4967589;28;20042;-78
2021/12/11 10:38:27;;;;;;;46.00;19.83;;;;;;;4.96;100.00;101177.00;4966724;28;20027;-78
2021/12/11 10:40:55;;;;;;;46.78;19.88;;;;;;;4.99;100.00;101178.69;4949527;29;20444;-79
2021/12/11 10:43:28;;;;;;;43.28;19.25;;;;;;;5.01;100.00;101175.91;4988770;28;20038;-79
2021/12/11 10:45:55;;;;;;;47.10;20.00;;;;;;;4.95;100.00;101177.06;4965756;28;20030;-79
2021/12/11 10:48:25;;;;;;;43.15;20.30;;;;;;;4.95;100.00;101191.53;4966270;28;20034;-79
2021/12/11 10:51:03;;;;;;;58.65;22.52;;;;;;;4.99;100.00;101199.53;4965298;28;20047;-78
2021/12/11 10:53:30;;;;;;;54.13;20.90;;;;;;;4.99;100.00;101197.69;4965321;28;20047;-79
2021/12/11 10:55:59;;;;;;;51.97;21.58;;;;;;;4.99;100.00;101203.09;4981389;28;20110;-79
2021/12/11 10:58:34;;;;;;;53.22;22.58;;;;;;;5.03;100.00;101198.41;4965903;28;20082;-78
2021/12/11 11:01:09;;;;;;;53.45;21.25;;;;;;;5.09;100.00;101207.09;4964912;28;20054;-78
2021/12/11 11:03:38;;;;;;;55.47;21.75;;;;;;;5.06;100.00;101217.25;4966816;28;20114;-78
2021/12/11 11:06:05;;;;;;;50.05;22.05;;;;;;;5.05;100.00;101207.34;4981347;28;20414;-78
2021/12/11 11:08:32;;;;;;;54.08;23.10;;;;;;;5.10;100.00;101222.44;4966854;29;20399;-78
2021/12/11 11:11:03;;;;;;;47.55;22.27;;;;;;;5.12;100.00;101225.97;4971980;28;20042;-79
2021/12/11 11:13:29;;;;;;;60.75;23.77;;;;;;;5.14;100.00;101232.19;4958805;29;20059;-79
2021/12/11 11:15:56;;;;;;;49.42;22.92;;;;;;;5.20;100.00;101241.88;4978032;28;20070;-79
2021/12/11 11:18:24;;;;;;;48.05;21.77;;;;;;;5.24;100.00;101243.44;4980471;28;20131;-79
2021/12/11 11:21:00;;;;;;;47.40;21.45;;;;;;;5.40;100.00;101238.13;4963902;28;20038;-79
2021/12/11 11:23:26;;;;;;;46.53;20.88;;;;;;;5.38;100.00;101244.56;4963654;29;20035;-79
2021/12/11 11:25:54;;;;;;;47.50;20.85;;;;;;;5.31;100.00;101260.31;4948157;29;20528;-79
2021/12/11 11:28:23;;;;;;;53.75;21.75;;;;;;;5.28;100.00;101260.47;4978103;28;20106;-80
2021/12/11 11:30:53;;;;;;;54.80;23.25;;;;;;;5.17;100.00;101262.84;4971619;28;20039;-79
2021/12/11 11:33:19;;;;;;;36.78;18.45;;;;;;;5.14;100.00;101267.47;4980589;28;20042;-78
2021/12/11 11:35:47;;;;;;;42.28;20.80;;;;;;;5.09;100.00;101272.25;4973726;28;20043;-79